Terminal Aerodrome Forecast
Issued by NWS

Home | Current Version | Previous Version | Text Only | Print | Product List | Glossary On
Versions: 1 2 3 4 5 6 7 8 9 10 11 12 13 14 15 16 17 18 19 20 21 22 23 24 25 26 27 28 29 30 31 32 33 34 35 36 37 38 39 40 41 42 43 44 45 46 47 48 49
000
FTUS45 KBOU 211123
TAFAPA
TAF
KAPA 211123Z 2112/2212 18007KT P6SM SCT100
     FM211600 23006KT P6SM FEW100 SCT200
     FM212000 32008KT P6SM SCT060 BKN120
     FM212200 36010KT P6SM VCSH SCT060 BKN100
     FM220200 06007KT P6SM SCT060 BKN100
     FM220400 16008KT P6SM SCT060 BKN100
     FM220700 20010KT P6SM SCT100 SCT200=

USA.gov is the U.S. government's official web portal to all federal, state and local government web resources and services.